sensor_id;sensor_type;location;lat;lon;timestamp;temperature;humidity
11136;DHT22;5622;50.840;4.948;2022-11-04T00:01:58;10.90;99.90
11136;DHT22;5622;50.840;4.948;2022-11-04T00:04:26;10.90;99.90
11136;DHT22;5622;50.840;4.948;2022-11-04T00:06:55;11.60;99.90
11136;DHT22;5622;50.840;4.948;2022-11-04T00:09:25;10.90;99.90
11136;DHT22;5622;50.840;4.948;2022-11-04T00:11:53;10.80;99.90
11136;DHT22;5622;50.840;4.948;2022-11-04T00:14:37;10.80;99.90
11136;DHT22;5622;50.840;4.948;2022-11-04T00:17:05;10.80;99.90
11136;DHT22;5622;50.840;4.948;2022-11-04T00:19:51;10.70;99.90
11136;DHT22;5622;50.840;4.948;2022-11-04T00:22:36;10.70;99.90
11136;DHT22;5622;50.840;4.948;2022-11-04T00:25:22;10.70;99.90
11136;DHT22;5622;50.840;4.948;2022-11-04T00:28:10;10.70;99.90
11136;DHT22;5622;50.840;4.948;2022-11-04T00:30:56;10.70;99.90
11136;DHT22;5622;50.840;4.948;2022-11-04T00:33:43;10.70;99.90
11136;DHT22;5622;50.840;4.948;2022-11-04T00:36:09;10.60;99.90
11136;DHT22;5622;50.840;4.948;2022-11-04T00:38:37;10.60;99.90
11136;DHT22;5622;50.840;4.948;2022-11-04T00:41:05;10.60;99.90
11136;DHT22;5622;50.840;4.948;2022-11-04T00:43:50;10.60;99.90
11136;DHT22;5622;50.840;4.948;2022-11-04T00:46:18;10.60;99.90
11136;DHT22;5622;50.840;4.948;2022-11-04T00:48:45;10.60;99.90
11136;DHT22;5622;50.840;4.948;2022-11-04T00:51:12;10.60;99.90
11136;DHT22;5622;50.840;4.948;2022-11-04T00:53:39;10.60;99.90
11136;DHT22;5622;50.840;4.948;2022-11-04T00:56:08;10.50;99.90
11136;DHT22;5622;50.840;4.948;2022-11-04T00:58:35;10.50;99.90
11136;DHT22;5622;50.840;4.948;2022-11-04T01:01:07;10.40;99.90
11136;DHT22;5622;50.840;4.948;2022-11-04T01:03:34;10.40;99.90
11136;DHT22;5622;50.840;4.948;2022-11-04T01:06:01;10.50;99.90
11136;DHT22;5622;50.840;4.948;2022-11-04T01:08:28;10.40;99.90
11136;DHT22;5622;50.840;4.948;2022-11-04T01:10:56;10.40;99.90
11136;DHT22;5622;50.840;4.948;2022-11-04T01:13:27;10.40;99.90
11136;DHT22;5622;50.840;4.948;2022-11-04T01:15:56;10.30;99.90
11136;DHT22;5622;50.840;4.948;2022-11-04T01:18:24;10.30;99.90
11136;DHT22;5622;50.840;4.948;2022-11-04T01:20:51;10.30;99.90
11136;DHT22;5622;50.840;4.948;2022-11-04T01:23:18;10.30;99.90
11136;DHT22;5622;50.840;4.948;2022-11-04T01:25:45;10.40;99.90
11136;DHT22;5622;50.840;4.948;2022-11-04T01:28:13;10.30;99.90
11136;DHT22;5622;50.840;4.948;2022-11-04T01:30:41;10.20;99.90
11136;DHT22;5622;50.840;4.948;2022-11-04T01:33:08;10.20;99.90
11136;DHT22;5622;50.840;4.948;2022-11-04T01:35:35;10.20;99.90
11136;DHT22;5622;50.840;4.948;2022-11-04T01:38:02;10.20;99.90
11136;DHT22;5622;50.840;4.948;2022-11-04T01:40:35;10.20;99.90
11136;DHT22;5622;50.840;4.948;2022-11-04T01:43:02;10.20;99.90
11136;DHT22;5622;50.840;4.948;2022-11-04T01:45:29;10.10;99.90
11136;DHT22;5622;50.840;4.948;2022-11-04T01:48:00;10.20;99.90
11136;DHT22;5622;50.840;4.948;2022-11-04T01:50:31;10.10;99.90
11136;DHT22;5622;50.840;4.948;2022-11-04T01:53:04;10.10;99.90
11136;DHT22;5622;50.840;4.948;2022-11-04T01:55:34;10.10;99.90
11136;DHT22;5622;50.840;4.948;2022-11-04T01:58:06;10.10;99.90
11136;DHT22;5622;50.840;4.948;2022-11-04T02:00:37;10.10;99.90
11136;DHT22;5622;50.840;4.948;2022-11-04T02:03:10;10.10;99.90
11136;DHT22;5622;50.840;4.948;2022-11-04T02:05:38;10.10;99.90
11136;DHT22;5622;50.840;4.948;2022-11-04T02:08:06;10.10;99.90
11136;DHT22;5622;50.840;4.948;2022-11-04T02:10:33;10.00;99.90
11136;DHT22;5622;50.840;4.948;2022-11-04T02:13:03;10.10;99.90
11136;DHT22;5622;50.840;4.948;2022-11-04T02:15:36;10.00;99.90
11136;DHT22;5622;50.840;4.948;2022-11-04T02:21:27;10.00;99.90
11136;DHT22;5622;50.840;4.948;2022-11-04T02:24:13;10.00;99.90
11136;DHT22;5622;50.840;4.948;2022-11-04T02:30:07;10.00;99.90
11136;DHT22;5622;50.840;4.948;2022-11-04T02:32:43;9.90;99.90
11136;DHT22;5622;50.840;4.948;2022-11-04T02:35:17;10.00;99.90
11136;DHT22;5622;50.840;4.948;2022-11-04T02:37:53;9.90;99.90
11136;DHT22;5622;50.840;4.948;2022-11-04T02:40:26;9.90;99.90
11136;DHT22;5622;50.840;4.948;2022-11-04T02:43:00;9.90;99.90
11136;DHT22;5622;50.840;4.948;2022-11-04T02:45:36;9.90;99.90
11136;DHT22;5622;50.840;4.948;2022-11-04T02:48:08;9.90;99.90
11136;DHT22;5622;50.840;4.948;2022-11-04T02:50:41;9.90;99.90
11136;DHT22;5622;50.840;4.948;2022-11-04T02:53:13;9.90;99.90
11136;DHT22;5622;50.840;4.948;2022-11-04T02:55:43;9.90;99.90
11136;DHT22;5622;50.840;4.948;2022-11-04T02:58:14;9.90;99.90
11136;DHT22;5622;50.840;4.948;2022-11-04T03:00:46;9.80;99.90
11136;DHT22;5622;50.840;4.948;2022-11-04T03:03:18;9.80;99.90
11136;DHT22;5622;50.840;4.948;2022-11-04T03:05:49;9.80;99.90
11136;DHT22;5622;50.840;4.948;2022-11-04T03:08:21;9.80;99.90
11136;DHT22;5622;50.840;4.948;2022-11-04T03:10:52;9.80;99.90
11136;DHT22;5622;50.840;4.948;2022-11-04T03:13:23;9.90;99.90
11136;DHT22;5622;50.840;4.948;2022-11-04T03:15:58;9.80;99.90
11136;DHT22;5622;50.840;4.948;2022-11-04T03:18:32;9.80;99.90
11136;DHT22;5622;50.840;4.948;2022-11-04T03:21:02;9.80;99.90
11136;DHT22;5622;50.840;4.948;2022-11-04T03:23:31;9.80;99.90
11136;DHT22;5622;50.840;4.948;2022-11-04T03:26:07;9.80;99.90
11136;DHT22;5622;50.840;4.948;2022-11-04T03:28:41;9.80;99.90
11136;DHT22;5622;50.840;4.948;2022-11-04T03:31:18;9.80;99.90
11136;DHT22;5622;50.840;4.948;2022-11-04T03:33:48;9.90;99.90
11136;DHT22;5622;50.840;4.948;2022-11-04T03:36:16;9.90;99.90
11136;DHT22;5622;50.840;4.948;2022-11-04T03:38:44;9.90;99.90
11136;DHT22;5622;50.840;4.948;2022-11-04T03:41:14;9.90;99.90
11136;DHT22;5622;50.840;4.948;2022-11-04T03:43:43;9.90;99.90
11136;DHT22;5622;50.840;4.948;2022-11-04T03:46:12;9.90;99.90
11136;DHT22;5622;50.840;4.948;2022-11-04T03:48:39;9.90;99.90
11136;DHT22;5622;50.840;4.948;2022-11-04T03:51:09;9.90;99.90
11136;DHT22;5622;50.840;4.948;2022-11-04T03:53:36;9.80;99.90
11136;DHT22;5622;50.840;4.948;2022-11-04T03:59:22;9.70;99.90
11136;DHT22;5622;50.840;4.948;2022-11-04T04:01:57;9.70;99.90
11136;DHT22;5622;50.840;4.948;2022-11-04T04:04:28;9.60;99.90
11136;DHT22;5622;50.840;4.948;2022-11-04T04:06:59;9.60;99.90
11136;DHT22;5622;50.840;4.948;2022-11-04T04:09:31;9.60;99.90
11136;DHT22;5622;50.840;4.948;2022-11-04T04:12:05;9.60;99.90
11136;DHT22;5622;50.840;4.948;2022-11-04T04:14:36;9.60;99.90
11136;DHT22;5622;50.840;4.948;2022-11-04T04:17:14;9.60;99.90
11136;DHT22;5622;50.840;4.948;2022-11-04T04:19:47;9.60;99.90
11136;DHT22;5622;50.840;4.948;2022-11-04T04:22:20;9.60;99.90
11136;DHT22;5622;50.840;4.948;2022-11-04T04:24:50;9.70;99.90
11136;DHT22;5622;50.840;4.948;2022-11-04T04:27:37;9.70;99.90
11136;DHT22;5622;50.840;4.948;2022-11-04T04:30:07;9.80;99.90
11136;DHT22;5622;50.840;4.948;2022-11-04T04:32:38;9.80;99.90
11136;DHT22;5622;50.840;4.948;2022-11-04T04:35:08;9.80;99.90
11136;DHT22;5622;50.840;4.948;2022-11-04T04:38:07;9.90;99.90
11136;DHT22;5622;50.840;4.948;2022-11-04T04:40:56;10.00;99.90
11136;DHT22;5622;50.840;4.948;2022-11-04T04:43:42;10.00;99.90
11136;DHT22;5622;50.840;4.948;2022-11-04T04:46:27;10.10;99.90
11136;DHT22;5622;50.840;4.948;2022-11-04T04:49:03;10.10;99.90
11136;DHT22;5622;50.840;4.948;2022-11-04T04:51:30;10.20;99.90
11136;DHT22;5622;50.840;4.948;2022-11-04T04:53:58;10.30;99.90
11136;DHT22;5622;50.840;4.948;2022-11-04T04:56:25;10.20;99.90
11136;DHT22;5622;50.840;4.948;2022-11-04T04:58:52;10.20;99.90
11136;DHT22;5622;50.840;4.948;2022-11-04T05:01:19;10.20;99.90
11136;DHT22;5622;50.840;4.948;2022-11-04T05:03:46;10.30;99.90
11136;DHT22;5622;50.840;4.948;2022-11-04T05:06:14;10.30;99.90
11136;DHT22;5622;50.840;4.948;2022-11-04T05:08:41;10.30;99.90
11136;DHT22;5622;50.840;4.948;2022-11-04T05:11:08;10.40;99.90
11136;DHT22;5622;50.840;4.948;2022-11-04T05:13:35;10.40;99.90
11136;DHT22;5622;50.840;4.948;2022-11-04T05:16:04;10.30;99.90
11136;DHT22;5622;50.840;4.948;2022-11-04T05:18:32;10.40;99.90
11136;DHT22;5622;50.840;4.948;2022-11-04T05:21:02;10.50;99.90
11136;DHT22;5622;50.840;4.948;2022-11-04T05:23:30;10.40;99.90
11136;DHT22;5622;50.840;4.948;2022-11-04T05:25:58;10.40;99.90
11136;DHT22;5622;50.840;4.948;2022-11-04T05:28:25;10.40;99.90
11136;DHT22;5622;50.840;4.948;2022-11-04T05:30:52;10.40;99.90
11136;DHT22;5622;50.840;4.948;2022-11-04T05:33:19;10.40;99.90
11136;DHT22;5622;50.840;4.948;2022-11-04T05:35:46;10.40;99.90
11136;DHT22;5622;50.840;4.948;2022-11-04T05:38:13;10.40;99.90
11136;DHT22;5622;50.840;4.948;2022-11-04T05:40:42;10.40;99.90
11136;DHT22;5622;50.840;4.948;2022-11-04T05:43:09;10.40;99.90
11136;DHT22;5622;50.840;4.948;2022-11-04T05:45:36;10.50;99.90
11136;DHT22;5622;50.840;4.948;2022-11-04T05:48:04;10.80;99.90
11136;DHT22;5622;50.840;4.948;2022-11-04T05:50:32;10.50;99.90
11136;DHT22;5622;50.840;4.948;2022-11-04T05:53:00;10.50;99.90
11136;DHT22;5622;50.840;4.948;2022-11-04T05:58:51;10.50;99.90
11136;DHT22;5622;50.840;4.948;2022-11-04T06:01:30;10.50;99.90
11136;DHT22;5622;50.840;4.948;2022-11-04T06:03:58;10.50;99.90
11136;DHT22;5622;50.840;4.948;2022-11-04T06:06:27;10.50;99.90
11136;DHT22;5622;50.840;4.948;2022-11-04T06:08:55;10.50;99.90
11136;DHT22;5622;50.840;4.948;2022-11-04T06:11:23;10.50;99.90
11136;DHT22;5622;50.840;4.948;2022-11-04T06:13:53;10.50;99.90
11136;DHT22;5622;50.840;4.948;2022-11-04T06:16:20;10.50;99.90
11136;DHT22;5622;50.840;4.948;2022-11-04T06:18:47;10.60;99.90
11136;DHT22;5622;50.840;4.948;2022-11-04T06:21:23;10.50;99.90
11136;DHT22;5622;50.840;4.948;2022-11-04T06:23:51;10.50;99.90
11136;DHT22;5622;50.840;4.948;2022-11-04T06:26:19;10.60;99.90
11136;DHT22;5622;50.840;4.948;2022-11-04T06:28:46;10.60;99.90
11136;DHT22;5622;50.840;4.948;2022-11-04T06:31:15;10.50;99.90
11136;DHT22;5622;50.840;4.948;2022-11-04T06:33:43;10.50;99.90
11136;DHT22;5622;50.840;4.948;2022-11-04T06:36:12;10.50;99.90
11136;DHT22;5622;50.840;4.948;2022-11-04T06:38:40;10.60;99.90
11136;DHT22;5622;50.840;4.948;2022-11-04T06:41:11;10.60;99.90
11136;DHT22;5622;50.840;4.948;2022-11-04T06:43:38;10.60;99.90
11136;DHT22;5622;50.840;4.948;2022-11-04T06:46:05;10.60;99.90
11136;DHT22;5622;50.840;4.948;2022-11-04T06:48:34;10.60;99.90
11136;DHT22;5622;50.840;4.948;2022-11-04T06:51:01;10.60;99.90
11136;DHT22;5622;50.840;4.948;2022-11-04T06:53:28;10.50;99.90
11136;DHT22;5622;50.840;4.948;2022-11-04T06:56:01;10.50;99.90
11136;DHT22;5622;50.840;4.948;2022-11-04T06:58:30;10.50;99.90
11136;DHT22;5622;50.840;4.948;2022-11-04T07:00:57;10.50;99.90
11136;DHT22;5622;50.840;4.948;2022-11-04T07:03:24;10.50;99.90
11136;DHT22;5622;50.840;4.948;2022-11-04T07:05:53;10.50;99.90
11136;DHT22;5622;50.840;4.948;2022-11-04T07:08:20;10.40;99.90
11136;DHT22;5622;50.840;4.948;2022-11-04T07:10:47;10.40;99.90
11136;DHT22;5622;50.840;4.948;2022-11-04T07:13:14;10.40;99.90
11136;DHT22;5622;50.840;4.948;2022-11-04T07:15:42;10.40;99.90
11136;DHT22;5622;50.840;4.948;2022-11-04T07:18:09;10.40;99.90
11136;DHT22;5622;50.840;4.948;2022-11-04T07:20:36;10.50;99.90
11136;DHT22;5622;50.840;4.948;2022-11-04T07:23:06;10.50;99.90
11136;DHT22;5622;50.840;4.948;2022-11-04T07:25:33;10.50;99.90
11136;DHT22;5622;50.840;4.948;2022-11-04T07:28:00;10.50;99.90
11136;DHT22;5622;50.840;4.948;2022-11-04T07:30:27;10.40;99.90
11136;DHT22;5622;50.840;4.948;2022-11-04T07:32:54;10.60;99.90
11136;DHT22;5622;50.840;4.948;2022-11-04T07:35:21;10.60;99.90
11136;DHT22;5622;50.840;4.948;2022-11-04T07:37:48;10.60;99.90
11136;DHT22;5622;50.840;4.948;2022-11-04T07:40:17;10.60;99.90
11136;DHT22;5622;50.840;4.948;2022-11-04T07:42:44;10.70;99.90
11136;DHT22;5622;50.840;4.948;2022-11-04T07:45:11;10.70;99.90
11136;DHT22;5622;50.840;4.948;2022-11-04T07:47:38;10.70;99.90
11136;DHT22;5622;50.840;4.948;2022-11-04T07:50:05;10.80;99.90
11136;DHT22;5622;50.840;4.948;2022-11-04T07:52:33;10.90;99.90
11136;DHT22;5622;50.840;4.948;2022-11-04T07:55:00;10.90;99.90
11136;DHT22;5622;50.840;4.948;2022-11-04T07:57:29;11.00;99.90
11136;DHT22;5622;50.840;4.948;2022-11-04T07:59:56;10.90;99.90
11136;DHT22;5622;50.840;4.948;2022-11-04T08:02:23;11.00;99.90
11136;DHT22;5622;50.840;4.948;2022-11-04T08:04:50;11.00;99.90
11136;DHT22;5622;50.840;4.948;2022-11-04T08:07:17;11.00;99.90
11136;DHT22;5622;50.840;4.948;2022-11-04T08:09:44;11.00;99.90
11136;DHT22;5622;50.840;4.948;2022-11-04T08:12:11;11.00;99.90
11136;DHT22;5622;50.840;4.948;2022-11-04T08:14:40;11.10;99.90
11136;DHT22;5622;50.840;4.948;2022-11-04T08:17:07;11.10;99.90
11136;DHT22;5622;50.840;4.948;2022-11-04T08:19:34;11.10;99.90
11136;DHT22;5622;50.840;4.948;2022-11-04T08:22:01;11.10;99.90
11136;DHT22;5622;50.840;4.948;2022-11-04T08:24:28;11.10;99.90
11136;DHT22;5622;50.840;4.948;2022-11-04T08:26:55;11.10;99.90
11136;DHT22;5622;50.840;4.948;2022-11-04T08:29:22;11.10;99.90
11136;DHT22;5622;50.840;4.948;2022-11-04T08:31:51;11.10;99.90
11136;DHT22;5622;50.840;4.948;2022-11-04T08:34:18;11.50;99.90
11136;DHT22;5622;50.840;4.948;2022-11-04T08:36:45;11.20;99.90
11136;DHT22;5622;50.840;4.948;2022-11-04T08:39:13;11.20;99.90
11136;DHT22;5622;50.840;4.948;2022-11-04T08:41:41;11.20;99.90
11136;DHT22;5622;50.840;4.948;2022-11-04T08:44:11;11.20;99.90
11136;DHT22;5622;50.840;4.948;2022-11-04T08:46:39;11.20;99.90
11136;DHT22;5622;50.840;4.948;2022-11-04T08:49:08;11.20;99.90
11136;DHT22;5622;50.840;4.948;2022-11-04T08:51:38;11.30;99.90
11136;DHT22;5622;50.840;4.948;2022-11-04T08:54:06;11.30;99.90
11136;DHT22;5622;50.840;4.948;2022-11-04T08:56:35;11.20;99.90
11136;DHT22;5622;50.840;4.948;2022-11-04T08:59:04;11.30;99.90
11136;DHT22;5622;50.840;4.948;2022-11-04T09:01:32;11.30;99.90
11136;DHT22;5622;50.840;4.948;2022-11-04T09:03:59;11.30;99.90
11136;DHT22;5622;50.840;4.948;2022-11-04T09:06:30;11.30;99.90
11136;DHT22;5622;50.840;4.948;2022-11-04T09:08:58;11.30;99.90
11136;DHT22;5622;50.840;4.948;2022-11-04T09:11:29;11.30;99.90
11136;DHT22;5622;50.840;4.948;2022-11-04T09:13:58;11.50;99.90
11136;DHT22;5622;50.840;4.948;2022-11-04T09:16:27;11.40;99.90
11136;DHT22;5622;50.840;4.948;2022-11-04T09:18:56;11.40;99.90
11136;DHT22;5622;50.840;4.948;2022-11-04T09:21:24;11.40;99.90
11136;DHT22;5622;50.840;4.948;2022-11-04T09:23:53;11.40;99.90
11136;DHT22;5622;50.840;4.948;2022-11-04T09:26:21;11.40;99.90
11136;DHT22;5622;50.840;4.948;2022-11-04T09:28:52;11.40;99.90
11136;DHT22;5622;50.840;4.948;2022-11-04T09:31:20;11.50;99.90
11136;DHT22;5622;50.840;4.948;2022-11-04T09:33:47;11.50;99.90
11136;DHT22;5622;50.840;4.948;2022-11-04T09:36:15;11.50;99.90
11136;DHT22;5622;50.840;4.948;2022-11-04T09:38:43;11.50;99.90
11136;DHT22;5622;50.840;4.948;2022-11-04T09:41:44;11.50;99.90
11136;DHT22;5622;50.840;4.948;2022-11-04T09:44:24;11.60;99.90
11136;DHT22;5622;50.840;4.948;2022-11-04T09:46:54;11.60;99.90
11136;DHT22;5622;50.840;4.948;2022-11-04T09:49:25;11.60;99.90
11136;DHT22;5622;50.840;4.948;2022-11-04T09:51:53;11.60;99.90
11136;DHT22;5622;50.840;4.948;2022-11-04T09:54:24;11.50;99.90
11136;DHT22;5622;50.840;4.948;2022-11-04T09:56:54;11.60;99.90
11136;DHT22;5622;50.840;4.948;2022-11-04T09:59:28;11.60;99.90
11136;DHT22;5622;50.840;4.948;2022-11-04T10:02:17;11.60;99.90
11136;DHT22;5622;50.840;4.948;2022-11-04T10:04:53;11.60;99.90
11136;DHT22;5622;50.840;4.948;2022-11-04T10:07:41;11.60;99.90
11136;DHT22;5622;50.840;4.948;2022-11-04T10:10:16;11.60;99.90
11136;DHT22;5622;50.840;4.948;2022-11-04T10:12:56;11.70;99.90
11136;DHT22;5622;50.840;4.948;2022-11-04T10:15:40;11.70;99.90
11136;DHT22;5622;50.840;4.948;2022-11-04T10:18:18;11.70;99.90
11136;DHT22;5622;50.840;4.948;2022-11-04T10:20:56;11.80;99.90
11136;DHT22;5622;50.840;4.948;2022-11-04T10:23:31;11.80;99.90
11136;DHT22;5622;50.840;4.948;2022-11-04T10:26:04;11.80;99.90
11136;DHT22;5622;50.840;4.948;2022-11-04T10:28:39;11.80;99.90
11136;DHT22;5622;50.840;4.948;2022-11-04T10:31:10;11.90;99.90
11136;DHT22;5622;50.840;4.948;2022-11-04T10:33:40;12.00;99.90
11136;DHT22;5622;50.840;4.948;2022-11-04T10:36:09;12.10;99.90
11136;DHT22;5622;50.840;4.948;2022-11-04T10:38:40;12.10;99.90
11136;DHT22;5622;50.840;4.948;2022-11-04T10:41:19;12.20;99.90
11136;DHT22;5622;50.840;4.948;2022-11-04T10:43:51;12.20;99.90
11136;DHT22;5622;50.840;4.948;2022-11-04T10:46:44;12.20;99.90
11136;DHT22;5622;50.840;4.948;2022-11-04T10:49:41;12.20;99.90
11136;DHT22;5622;50.840;4.948;2022-11-04T10:52:10;12.20;99.90
11136;DHT22;5622;50.840;4.948;2022-11-04T10:54:40;12.20;99.90
11136;DHT22;5622;50.840;4.948;2022-11-04T10:57:08;12.20;99.90
11136;DHT22;5622;50.840;4.948;2022-11-04T10:59:47;12.30;99.90
11136;DHT22;5622;50.840;4.948;2022-11-04T11:02:16;12.30;99.90
11136;DHT22;5622;50.840;4.948;2022-11-04T11:04:43;12.20;99.90
11136;DHT22;5622;50.840;4.948;2022-11-04T11:07:14;12.30;99.90
11136;DHT22;5622;50.840;4.948;2022-11-04T11:09:52;12.30;99.90
11136;DHT22;5622;50.840;4.948;2022-11-04T11:12:23;12.30;99.90
11136;DHT22;5622;50.840;4.948;2022-11-04T11:14:58;12.30;99.90
11136;DHT22;5622;50.840;4.948;2022-11-04T11:17:35;12.30;99.90
11136;DHT22;5622;50.840;4.948;2022-11-04T11:20:18;12.30;99.90
11136;DHT22;5622;50.840;4.948;2022-11-04T11:22:47;12.30;99.90
11136;DHT22;5622;50.840;4.948;2022-11-04T11:25:22;12.30;99.90
11136;DHT22;5622;50.840;4.948;2022-11-04T11:27:51;12.40;99.90
11136;DHT22;5622;50.840;4.948;2022-11-04T11:30:26;12.40;99.90
11136;DHT22;5622;50.840;4.948;2022-11-04T11:32:58;12.30;99.90
11136;DHT22;5622;50.840;4.948;2022-11-04T11:35:34;12.30;99.90
11136;DHT22;5622;50.840;4.948;2022-11-04T11:38:21;12.20;99.90
11136;DHT22;5622;50.840;4.948;2022-11-04T11:40:51;12.20;99.90
11136;DHT22;5622;50.840;4.948;2022-11-04T11:43:23;12.20;99.90
11136;DHT22;5622;50.840;4.948;2022-11-04T11:45:54;12.20;99.90
11136;DHT22;5622;50.840;4.948;2022-11-04T11:48:30;12.20;99.90
11136;DHT22;5622;50.840;4.948;2022-11-04T11:50:58;11.80;99.90
11136;DHT22;5622;50.840;4.948;2022-11-04T11:53:27;12.10;99.90
11136;DHT22;5622;50.840;4.948;2022-11-04T11:56:05;12.10;99.90
11136;DHT22;5622;50.840;4.948;2022-11-04T11:58:41;12.10;99.90
11136;DHT22;5622;50.840;4.948;2022-11-04T12:01:15;12.10;99.90
11136;DHT22;5622;50.840;4.948;2022-11-04T12:03:45;12.20;99.90
11136;DHT22;5622;50.840;4.948;2022-11-04T12:06:30;12.20;99.90
11136;DHT22;5622;50.840;4.948;2022-11-04T12:09:20;12.20;99.90
11136;DHT22;5622;50.840;4.948;2022-11-04T12:12:03;12.10;99.90
11136;DHT22;5622;50.840;4.948;2022-11-04T12:14:47;12.30;99.90
11136;DHT22;5622;50.840;4.948;2022-11-04T12:17:27;12.40;99.90
11136;DHT22;5622;50.840;4.948;2022-11-04T12:20:06;12.50;99.90
11136;DHT22;5622;50.840;4.948;2022-11-04T12:22:46;12.40;99.90
11136;DHT22;5622;50.840;4.948;2022-11-04T12:25:21;12.40;99.90
11136;DHT22;5622;50.840;4.948;2022-11-04T12:27:58;12.50;99.90
11136;DHT22;5622;50.840;4.948;2022-11-04T12:30:30;12.40;99.90
11136;DHT22;5622;50.840;4.948;2022-11-04T12:33:13;12.40;99.90
11136;DHT22;5622;50.840;4.948;2022-11-04T12:36:00;12.40;99.90
11136;DHT22;5622;50.840;4.948;2022-11-04T12:38:46;12.40;99.90
11136;DHT22;5622;50.840;4.948;2022-11-04T12:41:20;12.40;99.90
11136;DHT22;5622;50.840;4.948;2022-11-04T12:43:57;12.40;99.90
11136;DHT22;5622;50.840;4.948;2022-11-04T12:46:36;12.40;99.90
11136;DHT22;5622;50.840;4.948;2022-11-04T12:49:36;12.40;99.90
11136;DHT22;5622;50.840;4.948;2022-11-04T12:52:14;12.40;99.90
11136;DHT22;5622;50.840;4.948;2022-11-04T12:54:57;12.40;99.90
11136;DHT22;5622;50.840;4.948;2022-11-04T12:57:30;12.40;99.90
11136;DHT22;5622;50.840;4.948;2022-11-04T13:00:08;12.40;99.90
11136;DHT22;5622;50.840;4.948;2022-11-04T13:02:41;12.40;99.90
11136;DHT22;5622;50.840;4.948;2022-11-04T13:05:29;12.40;99.90
11136;DHT22;5622;50.840;4.948;2022-11-04T13:08:06;12.40;99.90
11136;DHT22;5622;50.840;4.948;2022-11-04T13:10:42;12.40;99.90
11136;DHT22;5622;50.840;4.948;2022-11-04T13:13:15;12.30;99.90
11136;DHT22;5622;50.840;4.948;2022-11-04T13:15:46;12.30;99.90
11136;DHT22;5622;50.840;4.948;2022-11-04T13:18:17;12.40;99.90
11136;DHT22;5622;50.840;4.948;2022-11-04T13:20:52;12.30;99.90
11136;DHT22;5622;50.840;4.948;2022-11-04T13:23:26;12.30;99.90
11136;DHT22;5622;50.840;4.948;2022-11-04T13:25:55;12.30;99.90
11136;DHT22;5622;50.840;4.948;2022-11-04T13:28:24;12.30;99.90
11136;DHT22;5622;50.840;4.948;2022-11-04T13:30:59;12.20;99.90
11136;DHT22;5622;50.840;4.948;2022-11-04T13:33:36;12.30;99.90
11136;DHT22;5622;50.840;4.948;2022-11-04T13:36:27;12.30;99.90
11136;DHT22;5622;50.840;4.948;2022-11-04T13:39:00;12.40;99.90
11136;DHT22;5622;50.840;4.948;2022-11-04T13:44:29;12.40;99.90
11136;DHT22;5622;50.840;4.948;2022-11-04T13:47:00;12.40;99.90
11136;DHT22;5622;50.840;4.948;2022-11-04T13:49:31;12.40;99.90
11136;DHT22;5622;50.840;4.948;2022-11-04T13:52:06;12.50;99.90
11136;DHT22;5622;50.840;4.948;2022-11-04T13:54:37;12.40;99.90
11136;DHT22;5622;50.840;4.948;2022-11-04T13:57:09;13.50;99.90
11136;DHT22;5622;50.840;4.948;2022-11-04T13:59:38;12.50;99.90
11136;DHT22;5622;50.840;4.948;2022-11-04T14:02:24;12.50;99.90
11136;DHT22;5622;50.840;4.948;2022-11-04T14:04:52;12.40;99.90
11136;DHT22;5622;50.840;4.948;2022-11-04T14:10:43;12.40;99.90
11136;DHT22;5622;50.840;4.948;2022-11-04T14:16:51;12.40;99.90
11136;DHT22;5622;50.840;4.948;2022-11-04T14:19:56;12.40;99.90
11136;DHT22;5622;50.840;4.948;2022-11-04T14:22:47;12.30;99.90
11136;DHT22;5622;50.840;4.948;2022-11-04T14:25:24;12.30;99.90
11136;DHT22;5622;50.840;4.948;2022-11-04T14:27:54;12.30;99.90
11136;DHT22;5622;50.840;4.948;2022-11-04T14:30:34;12.90;99.90
11136;DHT22;5622;50.840;4.948;2022-11-04T14:33:04;12.30;99.90
11136;DHT22;5622;50.840;4.948;2022-11-04T14:35:32;12.30;99.90
11136;DHT22;5622;50.840;4.948;2022-11-04T14:38:12;12.30;99.90
11136;DHT22;5622;50.840;4.948;2022-11-04T14:40:48;12.40;99.90
11136;DHT22;5622;50.840;4.948;2022-11-04T14:43:32;12.40;99.90
11136;DHT22;5622;50.840;4.948;2022-11-04T14:46:01;12.50;99.90
11136;DHT22;5622;50.840;4.948;2022-11-04T14:48:29;12.50;99.90
11136;DHT22;5622;50.840;4.948;2022-11-04T14:51:00;12.60;99.90
11136;DHT22;5622;50.840;4.948;2022-11-04T14:53:33;12.70;99.90
11136;DHT22;5622;50.840;4.948;2022-11-04T14:56:14;12.70;99.90
11136;DHT22;5622;50.840;4.948;2022-11-04T14:58:53;12.60;99.90
11136;DHT22;5622;50.840;4.948;2022-11-04T15:01:21;12.70;99.90
11136;DHT22;5622;50.840;4.948;2022-11-04T15:03:51;12.60;99.90
11136;DHT22;5622;50.840;4.948;2022-11-04T15:06:24;12.60;99.90
11136;DHT22;5622;50.840;4.948;2022-11-04T15:09:16;12.60;99.90
11136;DHT22;5622;50.840;4.948;2022-11-04T15:11:45;12.40;99.90
11136;DHT22;5622;50.840;4.948;2022-11-04T15:14:37;12.30;99.90
11136;DHT22;5622;50.840;4.948;2022-11-04T15:17:05;12.20;99.90
11136;DHT22;5622;50.840;4.948;2022-11-04T15:19:34;12.10;99.90
11136;DHT22;5622;50.840;4.948;2022-11-04T15:22:04;12.00;99.90
11136;DHT22;5622;50.840;4.948;2022-11-04T15:24:36;12.00;99.90
11136;DHT22;5622;50.840;4.948;2022-11-04T15:27:12;11.90;99.90
11136;DHT22;5622;50.840;4.948;2022-11-04T15:29:52;11.90;99.90
11136;DHT22;5622;50.840;4.948;2022-11-04T15:32:20;11.90;99.90
11136;DHT22;5622;50.840;4.948;2022-11-04T15:34:51;11.80;99.90
11136;DHT22;5622;50.840;4.948;2022-11-04T15:37:22;11.90;99.90
11136;DHT22;5622;50.840;4.948;2022-11-04T15:40:00;11.80;99.90
11136;DHT22;5622;50.840;4.948;2022-11-04T15:42:29;11.80;99.90
11136;DHT22;5622;50.840;4.948;2022-11-04T15:45:28;11.80;99.90
11136;DHT22;5622;50.840;4.948;2022-11-04T15:48:24;11.70;99.90
11136;DHT22;5622;50.840;4.948;2022-11-04T15:51:04;11.60;99.90
11136;DHT22;5622;50.840;4.948;2022-11-04T15:53:54;11.60;99.90
11136;DHT22;5622;50.840;4.948;2022-11-04T15:56:27;11.60;99.90
11136;DHT22;5622;50.840;4.948;2022-11-04T15:58:58;11.50;99.90
11136;DHT22;5622;50.840;4.948;2022-11-04T16:01:26;11.40;99.90
11136;DHT22;5622;50.840;4.948;2022-11-04T16:03:55;11.20;99.90
11136;DHT22;5622;50.840;4.948;2022-11-04T16:06:38;11.50;99.90
11136;DHT22;5622;50.840;4.948;2022-11-04T16:09:18;11.30;99.90
11136;DHT22;5622;50.840;4.948;2022-11-04T16:12:12;11.20;99.90
11136;DHT22;5622;50.840;4.948;2022-11-04T16:14:50;11.30;99.90
11136;DHT22;5622;50.840;4.948;2022-11-04T16:17:19;11.10;99.90
11136;DHT22;5622;50.840;4.948;2022-11-04T16:19:50;10.90;99.90
11136;DHT22;5622;50.840;4.948;2022-11-04T16:22:22;11.00;99.90
11136;DHT22;5622;50.840;4.948;2022-11-04T16:24:51;11.00;99.90
11136;DHT22;5622;50.840;4.948;2022-11-04T16:27:22;10.70;99.90
11136;DHT22;5622;50.840;4.948;2022-11-04T16:30:00;10.90;99.90
11136;DHT22;5622;50.840;4.948;2022-11-04T16:32:41;10.90;99.90
11136;DHT22;5622;50.840;4.948;2022-11-04T16:35:14;10.90;99.90
11136;DHT22;5622;50.840;4.948;2022-11-04T16:37:42;10.90;99.90
11136;DHT22;5622;50.840;4.948;2022-11-04T16:40:12;11.00;99.90
11136;DHT22;5622;50.840;4.948;2022-11-04T16:42:45;10.90;99.90
11136;DHT22;5622;50.840;4.948;2022-11-04T16:45:25;10.80;99.90